METAR Data
IDs: Format: Raw Decoded Include TAF

Data at: 1546 UTC 18 Aug 2019

PAGS 181456Z AUTO 35010G15KT 10SM CLR 14/M04 A2991 RMK AO2 SLP129 T01391044 58004
PAGS 181356Z AUTO 35010G15KT 10SM CLR 13/M05 A2992 RMK AO2 SLP132 T01331050
PAGS 181256Z AUTO 35008KT 10SM CLR 14/M05 A2993 RMK AO2 SLP133 T01391050
PAGS 181156Z AUTO 36010KT 10SM CLR 14/M04 A2993 RMK AO2 SLP133 70039 T01441044 10167 20139 53006
PAGS 181056Z AUTO 36013G17KT 10SM FEW100 15/M04 A2992 RMK AO2 SLP131 T01501044
PAGS 180956Z AUTO 36010G18KT 10SM CLR 15/M04 A2991 RMK AO2 SLP129 T01501044
PAGS 180856Z AUTO 35013G19KT 10SM SCT100 16/M05 A2991 RMK AO2 SLP127 T01561050 401890128 53012
PAGS 180756Z AUTO 36009G17KT 10SM CLR 16/M04 A2990 RMK AO2 SLP123 T01561044
PAGS 180656Z AUTO 01013G23KT 330V030 10SM CLR 16/M03 A2988 RMK AO2 SLP117 T01611033
PAGS 180556Z AUTO 36009G17KT 10SM FEW100 17/M03 A2987 RMK AO2 SLP115 T01671033 10189 20161 51020
PAGS 180456Z AUTO 36007G14KT 10SM FEW100 17/M02 A2985 RMK AO2 SLP109 T01671022
PAGS 180356Z AUTO 35009G17KT 10SM BKN100 18/M02 A2984 RMK AO2 SLP102 T01781017
PAGS 180256Z AUTO 35016G25KT 10SM FEW095 19/M01 A2981 RMK AO2 SLP095 T01891011 53013
PAGS 180156Z AUTO 02016G25KT 330V040 10SM CLR 18/M01 A2980 RMK AO2 SLP089 T01831006
PAGS 180056Z AUTO 02014G21KT 10SM CLR 18/01 A2979 RMK AO2 PK WND 03028/0011 SLP086 T01830006
PAGS 172356Z AUTO 01011G21KT 10SM OVC120 18/03 A2977 RMK AO2 SLP082 60001 T01830033 10183 20128 53004
PAGS 172256Z AUTO 33010KT 10SM FEW080 OVC100 17/12 A2976 RMK AO2 SLP077 T01720117
PAGS 172156Z AUTO 31007KT 10SM FEW080 OVC110 16/13 A2976 RMK AO2 SLP077 T01560133
PAGS 172056Z AUTO 32005KT 10SM OVC090 14/12 A2976 RMK AO2 RAE02 SLP078 P0000 60001 T01390122 58008
PAGS 171956Z AUTO 34005KT 10SM -RA BKN070 OVC085 13/12 A2978 RMK AO2 RAB07 SLP083 P0001 T01280117
PAGS 171856Z AUTO 31007KT 10SM OVC075 13/12 A2979 RMK AO2 RAE43 SLP088 P0000 T01280117
PAGS 171756Z AUTO 32009KT 10SM -RA OVC070 13/12 A2979 RMK AO2 SLP086 P0002 60038 T01280117 10139 20128 55006
PAGS 171702Z AUTO 32012KT 10SM -RA SCT005 BKN037 OVC080 13/12 A2978 RMK AO2 P0001
PAGS 171651Z AUTO 32009KT 10SM -RA BKN005 BKN017 OVC080 13/12 A2978 RMK AO2 SLP085 P0003 T01280122
PAGS 171650Z AUTO 32011KT 10SM -RA BKN005 BKN017 OVC080 13/12 A2978 RMK AO2 P0003
PAGS 171556Z AUTO 32010KT 8SM -RA FEW003 SCT021 OVC060 13/12 A2980 RMK AO2 SLP090 P0018 T01280122
PAGS 171553Z AUTO 32012KT 6SM -RA BR FEW003 BKN033 OVC055 13/12 A2980 RMK AO2 P0017
PAGS 171528Z AUTO 32006KT 4SM -RA BR SCT003 BKN017 OVC032 13/13 A2981 RMK AO2 P0008
PAGS 171456Z AUTO 30003KT 4SM -RA BR BKN003 OVC033 13/13 A2981 RMK AO2 SLP094 P0007 60015 T01330128 56023
PAGS 171356Z AUTO 24003KT 10SM -RA OVC003 13/13 A2982 RMK AO2 SLP099 P0001 T01330128
PAGS 171309Z AUTO 24004KT 5SM -RA BR OVC005 13/13 A2984 RMK AO2 CIG 003V008 P0001
PAGS 171256Z AUTO 27005KT 4SM -RA BR BKN003 OVC008 13/13 A2985 RMK AO2 SLP106 P0007 T01330133
PAGS 171249Z AUTO 27003KT 4SM -RA BR BKN005 OVC010 13/13 A2985 RMK AO2 CIG 002V007 P0007
PAGS 171232Z AUTO 00000KT 4SM -RA BR OVC008 14/13 A2985 RMK AO2 CIG 002V012 P0005
PAGS 171218Z AUTO 00000KT 3SM -RA BR OVC010 14/13 A2986 RMK AO2 CIG 006V012 P0003
PAGS 171204Z AUTO 00000KT 2 1/2SM -RA BR BKN006 OVC010 14/13 A2987 RMK AO2 CIG 002V008 P0002
PAGS 171156Z AUTO 00000KT 3SM -RA BR BKN004 OVC010 14/13 A2988 RMK AO2 RAB1057 CIG 002V007 SLP117 P0006 60013 70013 T01390133 10139 20133 56022
PAGS 171116Z AUTO 00000KT 3SM -RA BR OVC008 13/13 A2990 RMK AO2 RAB1057 CIG 003V010 P0002
PAGS 171107Z AUTO 00000KT 2 1/2SM -RA BR OVC008 13/13 A2990 RMK AO2 RAB1057 CIG 003V010 P0001
PAGS 171056Z AUTO 18003KT 4SM BR FEW004 OVC008 13/13 A2991 RMK AO2 RAE27 CIG 007V010 SLP128 P0002 T01330133
PAGS 171029Z AUTO 00000KT 10SM BKN006 OVC013 13/13 A2993 RMK AO2 RAE27 CIG 002V010 P0002
PAGS 170956Z AUTO 23004KT 3SM -RA BR BKN004 OVC015 13/13 A2994 RMK AO2 RAB06 CIG 002V007 SLP139 P0005 T01330133
PAGS 170949Z AUTO 26004KT 2 1/2SM -RA BR OVC004 13/13 A2995 RMK AO2 VIS 2V4 RAB06 CIG 002V008 P0003
PAGS 170937Z AUTO 00000KT 3SM -RA BR OVC006 13/13 A2995 RMK AO2 RAB06 CIG 003V008 P0002
PAGS 170856Z AUTO 17004KT 10SM BKN004 OVC010 14/13 A2997 RMK AO2 RAB0757E09 SLP150 P0000 60000 T01390133 401890106 58019
PAGS 170756Z AUTO 14004KT 5SM BR OVC004 13/13 A3000 RMK AO2 SLP157 T01330128
PAGS 170745Z AUTO 14004KT 10SM BKN004 OVC008 14/13 A3000 RMK AO2
PAGS 170732Z AUTO 15005KT 10SM BKN006 OVC012 14/13 A3001 RMK AO2 CIG 004V009
PAGS 170713Z AUTO 16004KT 10SM FEW006 OVC010 14/13 A3001 RMK AO2
PAGS 170656Z AUTO 16003KT 10SM OVC010 14/13 A3002 RMK AO2 CIG 007V013 SLP165 T01390128
PAGS 170630Z AUTO 14004KT 10SM FEW006 OVC012 14/13 A3003 RMK AO2
PAGS 170556Z AUTO 00000KT 10SM BKN006 OVC011 14/13 A3003 RMK AO2 SLP169 T01390133 10183 20139 58014
PAGS 170456Z AUTO 16004KT 10SM BKN006 OVC013 14/13 A3005 RMK AO2 CIG 005V010 SLP176 T01440133
PAGS 170453Z AUTO 16003KT 10SM SCT006 OVC013 14/13 A3005 RMK AO2
PAGS 170441Z AUTO 18004KT 10SM OVC013 14/13 A3005 RMK AO2
PAGS 170356Z AUTO 18003KT 10SM OVC017 14/13 A3007 RMK AO2 SLP182 T01440133